LDDU/DBV METAR and TAF weather

Enter ICAO airport designator
Station Type Date Time Source
LDDU METAR 2022/08/12 15:00 UTC NOAA

LDDU 121500Z 01010KT 320V070 CAVOK 28/11 Q1011 NOSIG


Station Type Date Time Source
LDDU Decoded METAR 2022/08/12 15:00 UTC NOAA

Dubrovnik / Cilipi, Croatia (LDDU) 42-34N 018-16E 165M
Aug 12, 2022 - 11:00 AM EDT / 2022.08.12 1500 UTC
Wind: from the N (010 degrees) at 12 MPH (10 KT) (direction variable):0
Visibility: greater than 7 mile(s):0
Temperature: 82 F (28 C)
Dew Point: 51 F (11 C)
Relative Humidity: 34%
Pressure (altimeter): 29.85 in. Hg (1011 hPa)
ob: LDDU 121500Z 01010KT 320V070 CAVOK 28/11 Q1011 NOSIG
cycle: 15

Station Type Date Time Source
LDDU TAF 2022/08/12 12:27 UTC NOAA

TAF TAF LDDU 121125Z 1212/1312 29010KT 9999 FEW050 TX29/1212Z TN22/1304Z PROB40
TEMPO 1212/1217 -TSRA FEW040CB SCT050
BECMG 1220/1222 09006KT
BECMG 1307/1309 16010KT PROB30
TEMPO 1307/1312 TSRA FEW030CB BKN040

Example: see airport list